Time;durP1;ratioP1;P1;durP2;ratioP2;P2;SDS_P1;SDS_P2;PMS_P1;PMS_P2;Temp;Humidity;BMP_temperature;BMP_pressure;BME280_temperature;BME280_humidity;BME280_pressure;Samples;Min_cycle;Max_cycle;Signal;HPM_P1;HPM_P2
2021/03/31 00:06:38;;;;;;;1.38;0.90;;;12.70;67.40;;;;;;20790274;28;20176;-77
2021/03/31 00:16:39;;;;;;;2.08;1.02;;;12.60;67.20;;;;;;20799930;28;20042;-77
2021/03/31 00:26:39;;;;;;;2.47;0.77;;;12.60;67.10;;;;;;20804729;28;20037;-76
2021/03/31 00:36:40;;;;;;;1.27;0.60;;;12.60;67.10;;;;;;20820224;28;20112;-76
2021/03/31 00:46:40;;;;;;;0.95;0.60;;;12.60;67.10;;;;;;20818958;28;20045;-75
2021/03/31 00:56:42;;;;;;;4.57;0.68;;;12.60;67.00;;;;;;20802700;28;20030;-76
2021/03/31 01:06:43;;;;;;;1.50;1.02;;;12.60;67.00;;;;;;20801325;28;20396;-77
2021/03/31 01:16:55;;;;;;;0.73;0.50;;;12.60;67.00;;;;;;20817209;28;20060;-77
2021/03/31 01:27:18;;;;;;;0.77;0.47;;;12.50;66.90;;;;;;20816312;28;20041;-78
2021/03/31 01:37:29;;;;;;;0.80;0.70;;;12.60;66.90;;;;;;20815494;28;20033;-76
2021/03/31 01:47:33;;;;;;;1.67;0.45;;;12.60;66.90;;;;;;20828621;28;20044;-76
2021/03/31 01:57:33;;;;;;;1.65;0.70;;;12.50;66.80;;;;;;20813691;28;20106;-77
2021/03/31 02:07:34;;;;;;;3.10;0.70;;;12.50;66.70;;;;;;20781065;28;20041;-78
2021/03/31 02:17:35;;;;;;;1.17;0.82;;;12.50;66.60;;;;;;20812068;28;20354;-77
2021/03/31 02:27:36;;;;;;;3.97;1.23;;;12.50;66.50;;;;;;20811809;28;20377;-78
2021/03/31 02:37:38;;;;;;;0.73;0.52;;;12.50;66.40;;;;;;20795490;28;20626;-76
2021/03/31 02:47:39;;;;;;;0.80;0.75;;;12.50;66.40;;;;;;20810488;28;20479;-77
2021/03/31 02:57:40;;;;;;;0.93;0.65;;;12.40;66.20;;;;;;20793308;28;20068;-77
2021/03/31 03:07:40;;;;;;;1.13;0.80;;;12.40;66.20;;;;;;20792492;28;20029;-77
2021/03/31 03:17:43;;;;;;;0.55;0.47;;;12.40;66.10;;;;;;20808328;28;20045;-77
2021/03/31 03:27:44;;;;;;;2.72;1.20;;;12.40;66.00;;;;;;20808109;28;20045;-77
2021/03/31 03:37:48;;;;;;;1.20;0.63;;;12.40;65.90;;;;;;20808095;28;20037;-76
2021/03/31 03:47:50;;;;;;;0.75;0.75;;;12.40;65.90;;;;;;20793323;28;20033;-79
2021/03/31 03:57:51;;;;;;;2.40;0.88;;;12.40;65.90;;;;;;20807530;28;20037;-77
2021/03/31 04:07:52;;;;;;;2.50;0.80;;;12.30;65.70;;;;;;20822471;28;20072;-76
2021/03/31 04:17:54;;;;;;;2.42;0.88;;;12.30;65.70;;;;;;20806607;28;20120;-75
2021/03/31 04:27:55;;;;;;;1.35;0.93;;;12.30;65.60;;;;;;20804691;28;20654;-75
2021/03/31 04:38:16;;;;;;;0.98;0.60;;;12.30;65.60;;;;;;20805258;28;20037;-77
2021/03/31 04:48:16;;;;;;;2.03;1.08;;;12.30;65.30;;;;;;20802688;28;20534;-77
2021/03/31 04:58:18;;;;;;;2.57;1.17;;;12.30;65.50;;;;;;20802032;28;20037;-78
2021/03/31 05:08:19;;;;;;;2.05;0.80;;;12.30;65.40;;;;;;20801374;28;20442;-78
2021/03/31 05:18:19;;;;;;;2.75;1.58;;;12.30;65.40;;;;;;20800677;28;20056;-77
2021/03/31 05:28:20;;;;;;;1.65;1.02;;;12.20;65.30;;;;;;20816569;28;20492;-77
2021/03/31 05:38:21;;;;;;;1.60;0.80;;;12.20;65.20;;;;;;20799245;28;20037;-78
2021/03/31 05:48:22;;;;;;;3.83;1.15;;;12.20;65.10;;;;;;20813516;28;20292;-72
2021/03/31 05:58:23;;;;;;;2.00;1.65;;;12.20;65.10;;;;;;20807803;28;20060;-75
2021/03/31 06:08:23;;;;;;;1.30;1.00;;;12.20;65.10;;;;;;20796024;28;20033;-75
2021/03/31 06:18:27;;;;;;;3.03;1.00;;;12.20;65.10;;;;;;20812215;28;20476;-77
2021/03/31 06:28:34;;;;;;;2.03;0.90;;;12.20;65.10;;;;;;20793688;28;20053;-78
2021/03/31 06:38:36;;;;;;;;;;;12.20;65.20;;;;;;20810107;28;20081;-78
2021/03/31 06:48:43;;;;;;;1.80;0.98;;;12.20;65.10;;;;;;20808759;28;19994;-74
2021/03/31 06:58:43;;;;;;;1.73;1.00;;;12.20;65.20;;;;;;20810228;28;20037;-74
2021/03/31 07:08:44;;;;;;;1.27;0.88;;;12.20;65.30;;;;;;20808926;28;20060;-76
2021/03/31 07:18:47;;;;;;;1.48;0.93;;;12.20;65.30;;;;;;20824607;28;20455;-79
2021/03/31 07:28:51;;;;;;;2.58;1.70;;;12.20;65.80;;;;;;20808269;28;20296;-79
2021/03/31 07:38:52;;;;;;;2.90;1.50;;;12.20;65.50;;;;;;20790483;28;20036;-79
2021/03/31 07:48:52;;;;;;;3.30;0.90;;;12.20;65.40;;;;;;20783287;28;20037;-81
2021/03/31 07:59:07;;;;;;;3.45;1.17;;;12.20;65.40;;;;;;20805265;28;20029;-80
2021/03/31 08:09:17;;;;;;;1.40;0.80;;;12.20;65.50;;;;;;20806215;28;20033;-79
2021/03/31 08:19:25;;;;;;;5.18;1.15;;;12.30;65.70;;;;;;20805771;28;20131;-77
2021/03/31 08:29:27;;;;;;;0.95;0.85;;;12.30;65.80;;;;;;21221508;22;20081;-73
2021/03/31 08:39:28;;;;;;;1.05;0.70;;;12.30;65.90;;;;;;20835851;28;20041;-72
2021/03/31 08:49:29;;;;;;;0.90;0.57;;;12.40;66.10;;;;;;20786891;28;20116;-75
2021/03/31 08:59:31;;;;;;;0.70;0.43;;;12.50;66.30;;;;;;20803489;28;20036;-75
2021/03/31 09:09:33;;;;;;;0.30;0.28;;;12.50;66.40;;;;;;20818458;28;20100;-78
2021/03/31 09:19:35;;;;;;;1.42;0.68;;;12.50;66.60;;;;;;20801035;28;20038;-73
2021/03/31 09:29:40;;;;;;;0.98;0.68;;;12.60;66.80;;;;;;20832880;28;20041;-71
2021/03/31 09:39:42;;;;;;;0.60;0.60;;;12.60;66.80;;;;;;20816235;28;20080;-70
2021/03/31 09:49:44;;;;;;;0.68;0.45;;;12.60;66.90;;;;;;20832170;28;20040;-71
2021/03/31 09:59:44;;;;;;;1.33;0.80;;;12.60;67.00;;;;;;20872319;28;20128;-71
2021/03/31 10:09:47;;;;;;;1.88;0.63;;;12.60;67.00;;;;;;20894850;28;20029;-73
2021/03/31 10:19:48;;;;;;;3.17;0.65;;;12.60;67.10;;;;;;20878107;28;20036;-73
2021/03/31 10:29:50;;;;;;;0.40;0.32;;;12.70;67.30;;;;;;20861880;28;20049;-73
2021/03/31 10:50:00;;;;;;;3.75;1.40;;;12.70;67.70;;;;;;20889323;28;20080;-73
2021/03/31 11:00:01;;;;;;;5.18;1.02;;;13.00;68.00;;;;;;20888685;28;20510;-76
2021/03/31 11:10:03;;;;;;;3.47;1.50;;;13.00;67.50;;;;;;20870982;28;20033;-74
2021/03/31 11:20:29;;;;;;;2.45;0.75;;;12.90;67.40;;;;;;20870867;28;20060;-77
2021/03/31 11:30:30;;;;;;;1.77;0.85;;;12.90;67.40;;;;;;20889922;28;20048;-77
2021/03/31 11:40:31;;;;;;;0.63;0.43;;;12.90;67.50;;;;;;20903522;28;20106;-74
2021/03/31 11:50:32;;;;;;;1.25;0.77;;;12.90;67.50;;;;;;20869692;28;20527;-74
2021/03/31 12:00:36;;;;;;;0.85;0.65;;;12.90;67.60;;;;;;20861198;28;20045;-75
2021/03/31 12:10:36;;;;;;;2.33;0.63;;;12.90;67.50;;;;;;20893549;28;20049;-74
2021/03/31 12:20:37;;;;;;;1.05;0.63;;;12.90;67.40;;;;;;20884164;28;20070;-75
2021/03/31 12:30:39;;;;;;;2.30;1.00;;;12.90;67.20;;;;;;20897316;28;20072;-75
2021/03/31 12:40:40;;;;;;;1.88;0.70;;;12.90;67.20;;;;;;20743198;28;20041;-76
2021/03/31 12:50:41;;;;;;;1.48;0.90;;;12.90;67.20;;;;;;20750806;28;20052;-75
2021/03/31 13:00:43;;;;;;;1.23;0.30;;;12.90;67.30;;;;;;20752402;28;20064;-74
2021/03/31 13:10:45;;;;;;;0.65;0.50;;;13.00;67.40;;;;;;20749255;28;20122;-74
2021/03/31 13:31:08;;;;;;;1.98;0.55;;;13.00;67.50;;;;;;20747656;28;20042;-73
2021/03/31 13:41:09;;;;;;;0.65;0.60;;;13.00;67.50;;;;;;20747472;28;20049;-75
2021/03/31 13:51:11;;;;;;;4.60;0.68;;;13.00;67.40;;;;;;20746211;28;20607;-75
2021/03/31 14:01:12;;;;;;;0.88;0.55;;;13.10;67.40;;;;;;20728981;28;20038;-77
2021/03/31 14:11:13;;;;;;;10.18;1.05;;;13.10;67.50;;;;;;20744478;28;20036;-76
2021/03/31 14:21:13;;;;;;;3.27;1.47;;;13.40;65.60;;;;;;20711078;28;20092;-75
2021/03/31 14:31:14;;;;;;;3.03;1.08;;;13.50;64.80;;;;;;20725853;28;20355;-75
2021/03/31 14:41:14;;;;;;;1.02;0.68;;;13.70;62.50;;;;;;20742068;28;20030;-76
2021/03/31 14:51:24;;;;;;;2.45;1.25;;;13.70;61.90;;;;;;20782369;28;20038;-73
2021/03/31 15:01:25;;;;;;;3.15;1.08;;;13.70;61.90;;;;;;20818676;28;20033;-78
2021/03/31 15:11:26;;;;;;;2.38;0.90;;;13.80;61.40;;;;;;20804316;28;20044;-72
2021/03/31 15:31:46;;;;;;;2.15;1.15;;;13.90;61.90;;;;;;20807422;28;20650;-72
2021/03/31 15:41:47;;;;;;;2.33;1.00;;;14.10;62.10;;;;;;20807624;28;20037;-73
2021/03/31 15:51:47;;;;;;;0.83;0.60;;;14.10;62.10;;;;;;20819995;28;20045;-74
2021/03/31 16:01:48;;;;;;;2.63;0.80;;;14.10;62.00;;;;;;20837279;28;20990;-73
2021/03/31 16:11:49;;;;;;;1.92;0.85;;;14.10;61.80;;;;;;20833824;28;20033;-71
2021/03/31 16:21:50;;;;;;;1.13;0.50;;;14.10;61.60;;;;;;20802074;28;20039;-76
2021/03/31 16:31:50;;;;;;;0.45;0.45;;;14.20;61.70;;;;;;20783204;28;20152;-71
2021/03/31 16:41:51;;;;;;;1.02;0.52;;;14.20;62.00;;;;;;20799592;28;20037;-75
2021/03/31 16:51:52;;;;;;;0.75;0.52;;;14.20;62.10;;;;;;20830138;28;20034;-74
2021/03/31 17:01:53;;;;;;;0.75;0.43;;;14.10;62.30;;;;;;20813259;28;20430;-74
2021/03/31 17:11:55;;;;;;;0.43;0.38;;;14.10;62.50;;;;;;20813012;28;20479;-74
2021/03/31 17:21:57;;;;;;;0.95;0.63;;;14.10;62.70;;;;;;20795436;28;20049;-73
2021/03/31 17:31:58;;;;;;;2.10;0.45;;;14.10;63.00;;;;;;20818096;28;20033;-73
2021/03/31 17:41:59;;;;;;;1.73;0.50;;;14.10;63.20;;;;;;20889150;28;20037;-74
2021/03/31 17:52:02;;;;;;;0.90;0.52;;;14.00;63.60;;;;;;20891575;28;20053;-74
2021/03/31 18:02:03;;;;;;;0.93;0.40;;;14.00;63.90;;;;;;20891736;28;20108;-73
2021/03/31 18:12:06;;;;;;;0.57;0.40;;;13.90;64.30;;;;;;20793379;28;20179;-76
2021/03/31 18:22:06;;;;;;;0.98;0.60;;;13.90;64.60;;;;;;20830286;28;20057;-73
2021/03/31 18:32:07;;;;;;;0.90;0.50;;;13.80;64.80;;;;;;20807175;28;20065;-74
2021/03/31 18:42:10;;;;;;;3.10;1.05;;;13.70;65.00;;;;;;20819800;28;20029;-73
2021/03/31 18:52:11;;;;;;;0.20;0.20;;;13.70;65.10;;;;;;20845976;28;20079;-72
2021/03/31 19:02:12;;;;;;;0.80;0.45;;;13.70;65.30;;;;;;20792064;28;20037;-71
2021/03/31 19:12:12;;;;;;;0.77;0.30;;;13.70;65.40;;;;;;20819653;28;20435;-72
2021/03/31 19:22:13;;;;;;;0.40;0.30;;;13.60;65.40;;;;;;20800758;28;20310;-72
2021/03/31 19:32:14;;;;;;;3.40;0.75;;;13.60;65.50;;;;;;20800888;28;20296;-71
2021/03/31 19:42:14;;;;;;;0.30;0.30;;;13.60;65.50;;;;;;20800716;28;20046;-73
2021/03/31 19:52:15;;;;;;;0.52;0.47;;;13.60;65.60;;;;;;20816459;28;20379;-73
2021/03/31 20:02:16;;;;;;;0.47;0.30;;;13.50;65.60;;;;;;20816062;28;20463;-72
2021/03/31 20:12:16;;;;;;;1.08;0.63;;;13.60;65.70;;;;;;20820179;28;20037;-72
2021/03/31 20:22:17;;;;;;;0.53;0.40;;;13.50;65.70;;;;;;20801564;28;20052;-72
2021/03/31 20:32:17;;;;;;;0.28;0.20;;;13.50;65.70;;;;;;20827019;28;20303;-71
2021/03/31 20:42:18;;;;;;;0.73;0.47;;;13.50;65.80;;;;;;20817084;28;20041;-73
2021/03/31 20:52:18;;;;;;;0.95;0.32;;;13.50;65.80;;;;;;20832534;28;20033;-73
2021/03/31 21:02:19;;;;;;;0.75;0.52;;;13.50;65.80;;;;;;20831733;28;20179;-72
2021/03/31 21:12:20;;;;;;;0.52;0.50;;;13.50;65.80;;;;;;20814353;28;20056;-71
2021/03/31 21:22:20;;;;;;;0.85;0.57;;;13.50;65.90;;;;;;20830622;28;20695;-71
2021/03/31 21:32:21;;;;;;;3.35;0.65;;;13.40;65.90;;;;;;20829575;28;20037;-72
2021/03/31 21:42:21;;;;;;;1.20;0.47;;;13.40;65.90;;;;;;20828603;28;20037;-73
2021/03/31 21:52:22;;;;;;;1.67;0.80;;;13.40;66.60;;;;;;20828195;28;20292;-71
2021/03/31 22:02:23;;;;;;;1.10;0.80;;;13.40;65.90;;;;;;20810458;28;20672;-73
2021/03/31 22:12:23;;;;;;;1.02;0.70;;;13.40;65.90;;;;;;20826044;28;20057;-72
2021/03/31 22:22:24;;;;;;;1.33;0.80;;;13.40;65.90;;;;;;20809085;28;20042;-73
2021/03/31 22:32:24;;;;;;;0.45;0.45;;;13.40;66.00;;;;;;20808504;28;20175;-72
2021/03/31 22:42:25;;;;;;;0.68;0.47;;;13.40;66.00;;;;;;20807596;28;20140;-72
2021/03/31 22:52:25;;;;;;;0.90;0.80;;;13.40;66.00;;;;;;20806402;28;20033;-72
2021/03/31 23:02:27;;;;;;;1.60;0.88;;;13.40;66.00;;;;;;20822834;28;20059;-72
2021/03/31 23:12:27;;;;;;;0.90;0.50;;;13.40;66.00;;;;;;20823509;28;20487;-72
2021/03/31 23:22:28;;;;;;;1.23;0.88;;;13.40;66.00;;;;;;20821580;28;20043;-71
2021/03/31 23:32:28;;;;;;;0.77;0.60;;;13.30;66.00;;;;;;20821186;28;20040;-72
2021/03/31 23:42:29;;;;;;;0.75;0.47;;;13.30;66.00;;;;;;20804129;28;20034;-72
2021/03/31 23:52:29;;;;;;;7.25;0.75;;;13.30;66.00;;;;;;20820511;28;20085;-71
